sensor_id;sensor_type;location;lat;lon;timestamp;P1;durP1;ratioP1;P2;durP2;ratioP2
10122;SDS011;5101;49.038;8.710;2022-10-16T00:01:25;1.42;;;0.65;;
10122;SDS011;5101;49.038;8.710;2022-10-16T00:03:53;4.20;;;0.60;;
10122;SDS011;5101;49.038;8.710;2022-10-16T00:06:20;0.60;;;0.60;;
10122;SDS011;5101;49.038;8.710;2022-10-16T00:08:47;1.60;;;0.60;;
10122;SDS011;5101;49.038;8.710;2022-10-16T00:11:14;2.72;;;0.85;;
10122;SDS011;5101;49.038;8.710;2022-10-16T00:13:42;2.05;;;0.60;;
10122;SDS011;5101;49.038;8.710;2022-10-16T00:16:11;7.63;;;0.60;;
10122;SDS011;5101;49.038;8.710;2022-10-16T00:18:38;1.63;;;0.63;;
10122;SDS011;5101;49.038;8.710;2022-10-16T00:21:11;2.70;;;0.73;;
10122;SDS011;5101;49.038;8.710;2022-10-16T00:23:39;3.55;;;0.80;;
10122;SDS011;5101;49.038;8.710;2022-10-16T00:26:06;1.10;;;0.80;;
10122;SDS011;5101;49.038;8.710;2022-10-16T00:28:34;2.50;;;1.00;;
10122;SDS011;5101;49.038;8.710;2022-10-16T00:31:04;1.85;;;0.90;;
10122;SDS011;5101;49.038;8.710;2022-10-16T00:33:37;2.10;;;0.80;;
10122;SDS011;5101;49.038;8.710;2022-10-16T00:36:04;4.07;;;0.80;;
10122;SDS011;5101;49.038;8.710;2022-10-16T00:38:31;0.70;;;0.70;;
10122;SDS011;5101;49.038;8.710;2022-10-16T00:40:57;2.63;;;0.80;;
10122;SDS011;5101;49.038;8.710;2022-10-16T00:43:33;1.95;;;0.40;;
10122;SDS011;5101;49.038;8.710;2022-10-16T00:48:39;1.55;;;0.60;;
10122;SDS011;5101;49.038;8.710;2022-10-16T00:51:06;3.50;;;0.70;;
10122;SDS011;5101;49.038;8.710;2022-10-16T00:53:33;1.58;;;0.60;;
10122;SDS011;5101;49.038;8.710;2022-10-16T00:55:59;2.00;;;0.63;;
10122;SDS011;5101;49.038;8.710;2022-10-16T00:58:25;2.03;;;0.63;;
10122;SDS011;5101;49.038;8.710;2022-10-16T01:00:51;7.43;;;0.75;;
10122;SDS011;5101;49.038;8.710;2022-10-16T01:03:27;3.42;;;0.80;;
10122;SDS011;5101;49.038;8.710;2022-10-16T01:06:09;0.50;;;0.45;;
10122;SDS011;5101;49.038;8.710;2022-10-16T01:11:17;1.40;;;0.50;;
10122;SDS011;5101;49.038;8.710;2022-10-16T01:13:58;2.15;;;0.65;;
10122;SDS011;5101;49.038;8.710;2022-10-16T01:16:34;3.97;;;0.50;;
10122;SDS011;5101;49.038;8.710;2022-10-16T01:19:16;2.67;;;0.75;;
10122;SDS011;5101;49.038;8.710;2022-10-16T01:21:57;1.55;;;0.50;;
10122;SDS011;5101;49.038;8.710;2022-10-16T01:27:25;4.00;;;0.50;;
10122;SDS011;5101;49.038;8.710;2022-10-16T01:30:11;4.68;;;0.73;;
10122;SDS011;5101;49.038;8.710;2022-10-16T01:35:35;2.88;;;0.68;;
10122;SDS011;5101;49.038;8.710;2022-10-16T01:38:05;2.38;;;0.70;;
10122;SDS011;5101;49.038;8.710;2022-10-16T01:40:36;2.58;;;0.70;;
10122;SDS011;5101;49.038;8.710;2022-10-16T01:43:12;0.60;;;0.60;;
10122;SDS011;5101;49.038;8.710;2022-10-16T01:45:40;2.10;;;0.85;;
10122;SDS011;5101;49.038;8.710;2022-10-16T01:48:09;1.80;;;0.80;;
10122;SDS011;5101;49.038;8.710;2022-10-16T01:50:38;4.57;;;0.90;;
10122;SDS011;5101;49.038;8.710;2022-10-16T01:53:06;2.40;;;0.75;;
10122;SDS011;5101;49.038;8.710;2022-10-16T01:55:36;0.65;;;0.50;;
10122;SDS011;5101;49.038;8.710;2022-10-16T01:58:07;2.85;;;1.40;;
10122;SDS011;5101;49.038;8.710;2022-10-16T02:00:34;0.93;;;0.50;;
10122;SDS011;5101;49.038;8.710;2022-10-16T02:03:02;3.85;;;0.70;;
10122;SDS011;5101;49.038;8.710;2022-10-16T02:05:31;2.40;;;0.60;;
10122;SDS011;5101;49.038;8.710;2022-10-16T02:08:05;0.75;;;0.40;;
10122;SDS011;5101;49.038;8.710;2022-10-16T02:10:30;3.97;;;1.10;;
10122;SDS011;5101;49.038;8.710;2022-10-16T02:13:07;4.35;;;0.75;;
10122;SDS011;5101;49.038;8.710;2022-10-16T02:15:36;1.15;;;0.60;;
10122;SDS011;5101;49.038;8.710;2022-10-16T02:18:03;1.08;;;0.60;;
10122;SDS011;5101;49.038;8.710;2022-10-16T02:20:31;1.55;;;0.57;;
10122;SDS011;5101;49.038;8.710;2022-10-16T02:23:01;2.30;;;0.52;;
10122;SDS011;5101;49.038;8.710;2022-10-16T02:27:54;0.68;;;0.68;;
10122;SDS011;5101;49.038;8.710;2022-10-16T02:30:36;3.33;;;0.90;;
10122;SDS011;5101;49.038;8.710;2022-10-16T02:33:13;1.77;;;0.70;;
10122;SDS011;5101;49.038;8.710;2022-10-16T02:35:40;1.75;;;0.52;;
10122;SDS011;5101;49.038;8.710;2022-10-16T02:38:06;7.25;;;0.65;;
10122;SDS011;5101;49.038;8.710;2022-10-16T02:40:33;1.75;;;0.50;;
10122;SDS011;5101;49.038;8.710;2022-10-16T02:42:59;3.13;;;0.75;;
10122;SDS011;5101;49.038;8.710;2022-10-16T02:45:25;2.45;;;0.50;;
10122;SDS011;5101;49.038;8.710;2022-10-16T02:47:50;0.50;;;0.50;;
10122;SDS011;5101;49.038;8.710;2022-10-16T02:50:16;3.17;;;0.73;;
10122;SDS011;5101;49.038;8.710;2022-10-16T02:52:42;1.45;;;0.60;;
10122;SDS011;5101;49.038;8.710;2022-10-16T02:55:07;3.88;;;0.70;;
10122;SDS011;5101;49.038;8.710;2022-10-16T02:57:33;1.88;;;0.65;;
10122;SDS011;5101;49.038;8.710;2022-10-16T02:59:59;1.30;;;0.68;;
10122;SDS011;5101;49.038;8.710;2022-10-16T03:02:24;2.33;;;0.50;;
10122;SDS011;5101;49.038;8.710;2022-10-16T03:04:50;3.25;;;0.40;;
10122;SDS011;5101;49.038;8.710;2022-10-16T03:07:15;3.53;;;0.70;;
10122;SDS011;5101;49.038;8.710;2022-10-16T03:09:41;4.63;;;0.70;;
10122;SDS011;5101;49.038;8.710;2022-10-16T03:12:07;1.75;;;0.60;;
10122;SDS011;5101;49.038;8.710;2022-10-16T03:14:33;1.90;;;0.65;;
10122;SDS011;5101;49.038;8.710;2022-10-16T03:16:58;3.80;;;0.70;;
10122;SDS011;5101;49.038;8.710;2022-10-16T03:19:24;2.63;;;0.77;;
10122;SDS011;5101;49.038;8.710;2022-10-16T03:21:49;3.95;;;0.60;;
10122;SDS011;5101;49.038;8.710;2022-10-16T03:24:15;7.50;;;1.13;;
10122;SDS011;5101;49.038;8.710;2022-10-16T03:26:40;0.98;;;0.70;;
10122;SDS011;5101;49.038;8.710;2022-10-16T03:29:06;2.95;;;0.80;;
10122;SDS011;5101;49.038;8.710;2022-10-16T03:31:31;3.83;;;0.70;;
10122;SDS011;5101;49.038;8.710;2022-10-16T03:33:57;2.08;;;0.70;;
10122;SDS011;5101;49.038;8.710;2022-10-16T03:36:23;3.08;;;0.70;;
10122;SDS011;5101;49.038;8.710;2022-10-16T03:38:48;5.55;;;0.70;;
10122;SDS011;5101;49.038;8.710;2022-10-16T03:41:14;2.13;;;0.52;;
10122;SDS011;5101;49.038;8.710;2022-10-16T03:43:39;1.13;;;0.60;;
10122;SDS011;5101;49.038;8.710;2022-10-16T03:46:05;0.68;;;0.68;;
10122;SDS011;5101;49.038;8.710;2022-10-16T03:48:30;0.77;;;0.60;;
10122;SDS011;5101;49.038;8.710;2022-10-16T03:50:57;6.93;;;0.70;;
10122;SDS011;5101;49.038;8.710;2022-10-16T03:53:23;1.70;;;0.70;;
10122;SDS011;5101;49.038;8.710;2022-10-16T03:55:48;0.73;;;0.50;;
10122;SDS011;5101;49.038;8.710;2022-10-16T03:58:14;1.50;;;0.70;;
10122;SDS011;5101;49.038;8.710;2022-10-16T04:00:40;6.05;;;1.10;;
10122;SDS011;5101;49.038;8.710;2022-10-16T04:03:09;3.45;;;0.85;;
10122;SDS011;5101;49.038;8.710;2022-10-16T04:05:35;3.38;;;0.70;;
10122;SDS011;5101;49.038;8.710;2022-10-16T04:08:01;1.58;;;0.60;;
10122;SDS011;5101;49.038;8.710;2022-10-16T04:10:27;4.40;;;0.63;;
10122;SDS011;5101;49.038;8.710;2022-10-16T04:12:53;2.63;;;0.63;;
10122;SDS011;5101;49.038;8.710;2022-10-16T04:15:20;1.38;;;0.60;;
10122;SDS011;5101;49.038;8.710;2022-10-16T04:17:47;3.78;;;0.50;;
10122;SDS011;5101;49.038;8.710;2022-10-16T04:20:12;2.90;;;0.43;;
10122;SDS011;5101;49.038;8.710;2022-10-16T04:22:38;6.68;;;0.60;;
10122;SDS011;5101;49.038;8.710;2022-10-16T04:25:04;2.65;;;0.70;;
10122;SDS011;5101;49.038;8.710;2022-10-16T04:27:29;3.30;;;0.57;;
10122;SDS011;5101;49.038;8.710;2022-10-16T04:29:56;6.22;;;0.70;;
10122;SDS011;5101;49.038;8.710;2022-10-16T04:32:22;2.50;;;0.50;;
10122;SDS011;5101;49.038;8.710;2022-10-16T04:34:47;3.00;;;0.70;;
10122;SDS011;5101;49.038;8.710;2022-10-16T04:37:13;1.60;;;0.60;;
10122;SDS011;5101;49.038;8.710;2022-10-16T04:39:38;3.25;;;0.70;;
10122;SDS011;5101;49.038;8.710;2022-10-16T04:42:04;2.08;;;0.65;;
10122;SDS011;5101;49.038;8.710;2022-10-16T04:44:29;1.92;;;0.60;;
10122;SDS011;5101;49.038;8.710;2022-10-16T04:46:55;1.35;;;0.85;;
10122;SDS011;5101;49.038;8.710;2022-10-16T04:49:20;1.48;;;0.65;;
10122;SDS011;5101;49.038;8.710;2022-10-16T04:51:46;5.43;;;0.75;;
10122;SDS011;5101;49.038;8.710;2022-10-16T04:54:11;4.97;;;0.75;;
10122;SDS011;5101;49.038;8.710;2022-10-16T04:56:37;1.60;;;0.50;;
10122;SDS011;5101;49.038;8.710;2022-10-16T04:59:10;4.45;;;0.80;;
10122;SDS011;5101;49.038;8.710;2022-10-16T05:01:36;0.50;;;0.50;;
10122;SDS011;5101;49.038;8.710;2022-10-16T05:04:02;4.05;;;0.70;;
10122;SDS011;5101;49.038;8.710;2022-10-16T05:06:27;1.33;;;0.73;;
10122;SDS011;5101;49.038;8.710;2022-10-16T05:08:53;6.35;;;0.70;;
10122;SDS011;5101;49.038;8.710;2022-10-16T05:11:18;2.78;;;0.50;;
10122;SDS011;5101;49.038;8.710;2022-10-16T05:13:44;0.45;;;0.45;;
10122;SDS011;5101;49.038;8.710;2022-10-16T05:16:09;4.75;;;0.75;;
10122;SDS011;5101;49.038;8.710;2022-10-16T05:18:35;3.15;;;0.80;;
10122;SDS011;5101;49.038;8.710;2022-10-16T05:21:00;2.63;;;1.00;;
10122;SDS011;5101;49.038;8.710;2022-10-16T05:23:26;4.65;;;0.70;;
10122;SDS011;5101;49.038;8.710;2022-10-16T05:25:52;2.92;;;0.80;;
10122;SDS011;5101;49.038;8.710;2022-10-16T05:28:23;3.20;;;0.80;;
10122;SDS011;5101;49.038;8.710;2022-10-16T05:30:49;2.17;;;0.60;;
10122;SDS011;5101;49.038;8.710;2022-10-16T05:33:15;1.67;;;0.63;;
10122;SDS011;5101;49.038;8.710;2022-10-16T05:35:40;4.07;;;1.10;;
10122;SDS011;5101;49.038;8.710;2022-10-16T05:38:06;2.58;;;0.82;;
10122;SDS011;5101;49.038;8.710;2022-10-16T05:40:31;2.55;;;1.00;;
10122;SDS011;5101;49.038;8.710;2022-10-16T05:42:57;4.35;;;1.02;;
10122;SDS011;5101;49.038;8.710;2022-10-16T05:45:22;8.80;;;1.25;;
10122;SDS011;5101;49.038;8.710;2022-10-16T05:47:48;1.15;;;0.73;;
10122;SDS011;5101;49.038;8.710;2022-10-16T05:50:13;4.50;;;1.05;;
10122;SDS011;5101;49.038;8.710;2022-10-16T05:52:39;0.80;;;0.70;;
10122;SDS011;5101;49.038;8.710;2022-10-16T05:55:05;1.48;;;0.70;;
10122;SDS011;5101;49.038;8.710;2022-10-16T05:57:30;3.17;;;0.93;;
10122;SDS011;5101;49.038;8.710;2022-10-16T05:59:56;2.42;;;1.00;;
10122;SDS011;5101;49.038;8.710;2022-10-16T06:02:21;1.65;;;0.90;;
10122;SDS011;5101;49.038;8.710;2022-10-16T06:04:47;1.10;;;1.00;;
10122;SDS011;5101;49.038;8.710;2022-10-16T06:07:12;3.20;;;0.88;;
10122;SDS011;5101;49.038;8.710;2022-10-16T06:09:38;2.95;;;0.70;;
10122;SDS011;5101;49.038;8.710;2022-10-16T06:12:04;4.55;;;0.80;;
10122;SDS011;5101;49.038;8.710;2022-10-16T06:14:29;4.40;;;0.90;;
10122;SDS011;5101;49.038;8.710;2022-10-16T06:16:55;3.63;;;0.80;;
10122;SDS011;5101;49.038;8.710;2022-10-16T06:19:20;3.70;;;1.17;;
10122;SDS011;5101;49.038;8.710;2022-10-16T06:21:46;0.90;;;0.70;;
10122;SDS011;5101;49.038;8.710;2022-10-16T06:24:11;4.10;;;0.90;;
10122;SDS011;5101;49.038;8.710;2022-10-16T06:26:37;2.50;;;0.82;;
10122;SDS011;5101;49.038;8.710;2022-10-16T06:29:03;0.70;;;0.70;;
10122;SDS011;5101;49.038;8.710;2022-10-16T06:31:29;1.80;;;0.85;;
10122;SDS011;5101;49.038;8.710;2022-10-16T06:33:56;5.63;;;1.20;;
10122;SDS011;5101;49.038;8.710;2022-10-16T06:36:22;1.33;;;0.90;;
10122;SDS011;5101;49.038;8.710;2022-10-16T06:38:49;5.07;;;1.25;;
10122;SDS011;5101;49.038;8.710;2022-10-16T06:41:15;2.67;;;0.98;;
10122;SDS011;5101;49.038;8.710;2022-10-16T06:43:42;4.13;;;1.02;;
10122;SDS011;5101;49.038;8.710;2022-10-16T06:46:10;6.22;;;1.02;;
10122;SDS011;5101;49.038;8.710;2022-10-16T06:48:36;1.85;;;1.23;;
10122;SDS011;5101;49.038;8.710;2022-10-16T06:53:31;2.88;;;1.05;;
10122;SDS011;5101;49.038;8.710;2022-10-16T06:56:05;2.95;;;0.93;;
10122;SDS011;5101;49.038;8.710;2022-10-16T06:58:35;3.70;;;1.02;;
10122;SDS011;5101;49.038;8.710;2022-10-16T07:01:01;2.50;;;1.42;;
10122;SDS011;5101;49.038;8.710;2022-10-16T07:03:27;3.25;;;1.38;;
10122;SDS011;5101;49.038;8.710;2022-10-16T07:05:52;5.85;;;1.73;;
10122;SDS011;5101;49.038;8.710;2022-10-16T07:08:18;3.03;;;1.30;;
10122;SDS011;5101;49.038;8.710;2022-10-16T07:10:43;2.47;;;1.88;;
10122;SDS011;5101;49.038;8.710;2022-10-16T07:13:09;3.00;;;1.20;;
10122;SDS011;5101;49.038;8.710;2022-10-16T07:15:38;2.50;;;1.25;;
10122;SDS011;5101;49.038;8.710;2022-10-16T07:18:03;3.35;;;1.50;;
10122;SDS011;5101;49.038;8.710;2022-10-16T07:20:29;2.17;;;1.10;;
10122;SDS011;5101;49.038;8.710;2022-10-16T07:22:54;7.35;;;1.23;;
10122;SDS011;5101;49.038;8.710;2022-10-16T07:25:20;4.85;;;1.35;;
10122;SDS011;5101;49.038;8.710;2022-10-16T07:27:45;2.58;;;1.02;;
10122;SDS011;5101;49.038;8.710;2022-10-16T07:30:11;2.20;;;1.27;;
10122;SDS011;5101;49.038;8.710;2022-10-16T07:32:37;10.43;;;4.18;;
10122;SDS011;5101;49.038;8.710;2022-10-16T07:35:02;2.83;;;1.77;;
10122;SDS011;5101;49.038;8.710;2022-10-16T07:37:28;4.45;;;1.27;;
10122;SDS011;5101;49.038;8.710;2022-10-16T07:39:54;2.17;;;1.80;;
10122;SDS011;5101;49.038;8.710;2022-10-16T07:42:19;2.60;;;1.30;;
10122;SDS011;5101;49.038;8.710;2022-10-16T07:44:45;4.35;;;1.02;;
10122;SDS011;5101;49.038;8.710;2022-10-16T07:47:10;3.08;;;0.90;;
10122;SDS011;5101;49.038;8.710;2022-10-16T07:49:36;1.13;;;0.75;;
10122;SDS011;5101;49.038;8.710;2022-10-16T07:52:02;2.53;;;0.80;;
10122;SDS011;5101;49.038;8.710;2022-10-16T07:54:27;1.38;;;0.80;;
10122;SDS011;5101;49.038;8.710;2022-10-16T07:56:53;2.17;;;0.93;;
10122;SDS011;5101;49.038;8.710;2022-10-16T07:59:18;1.63;;;0.85;;
10122;SDS011;5101;49.038;8.710;2022-10-16T08:01:44;1.77;;;0.90;;
10122;SDS011;5101;49.038;8.710;2022-10-16T08:04:09;1.05;;;0.70;;
10122;SDS011;5101;49.038;8.710;2022-10-16T08:06:39;4.63;;;0.90;;
10122;SDS011;5101;49.038;8.710;2022-10-16T08:09:05;3.13;;;0.70;;
10122;SDS011;5101;49.038;8.710;2022-10-16T08:11:32;1.02;;;0.70;;
10122;SDS011;5101;49.038;8.710;2022-10-16T08:13:58;3.95;;;0.90;;
10122;SDS011;5101;49.038;8.710;2022-10-16T08:16:23;3.40;;;0.70;;
10122;SDS011;5101;49.038;8.710;2022-10-16T08:18:49;2.25;;;0.90;;
10122;SDS011;5101;49.038;8.710;2022-10-16T08:21:16;2.60;;;0.70;;
10122;SDS011;5101;49.038;8.710;2022-10-16T08:23:43;2.05;;;0.88;;
10122;SDS011;5101;49.038;8.710;2022-10-16T08:26:09;6.40;;;0.90;;
10122;SDS011;5101;49.038;8.710;2022-10-16T08:28:35;0.65;;;0.60;;
10122;SDS011;5101;49.038;8.710;2022-10-16T08:31:08;3.72;;;0.60;;
10122;SDS011;5101;49.038;8.710;2022-10-16T08:33:36;3.28;;;0.88;;
10122;SDS011;5101;49.038;8.710;2022-10-16T08:36:02;3.53;;;0.80;;
10122;SDS011;5101;49.038;8.710;2022-10-16T08:38:29;3.47;;;0.85;;
10122;SDS011;5101;49.038;8.710;2022-10-16T08:40:57;1.58;;;0.60;;
10122;SDS011;5101;49.038;8.710;2022-10-16T08:46:37;2.50;;;0.65;;
10122;SDS011;5101;49.038;8.710;2022-10-16T08:49:11;2.58;;;0.65;;
10122;SDS011;5101;49.038;8.710;2022-10-16T08:51:41;2.35;;;0.70;;
10122;SDS011;5101;49.038;8.710;2022-10-16T08:54:24;1.40;;;0.52;;
10122;SDS011;5101;49.038;8.710;2022-10-16T08:56:55;2.53;;;0.60;;
10122;SDS011;5101;49.038;8.710;2022-10-16T08:59:22;2.05;;;0.70;;
10122;SDS011;5101;49.038;8.710;2022-10-16T09:01:49;3.15;;;0.77;;
10122;SDS011;5101;49.038;8.710;2022-10-16T09:07:27;1.33;;;0.60;;
10122;SDS011;5101;49.038;8.710;2022-10-16T09:15:30;1.15;;;0.60;;
10122;SDS011;5101;49.038;8.710;2022-10-16T09:18:01;2.42;;;0.77;;
10122;SDS011;5101;49.038;8.710;2022-10-16T09:20:49;1.00;;;0.50;;
10122;SDS011;5101;49.038;8.710;2022-10-16T09:25:46;3.90;;;0.93;;
10122;SDS011;5101;49.038;8.710;2022-10-16T09:28:14;1.45;;;0.80;;
10122;SDS011;5101;49.038;8.710;2022-10-16T09:30:41;1.48;;;0.65;;
10122;SDS011;5101;49.038;8.710;2022-10-16T09:33:07;4.20;;;0.70;;
10122;SDS011;5101;49.038;8.710;2022-10-16T09:35:45;0.60;;;0.60;;
10122;SDS011;5101;49.038;8.710;2022-10-16T09:38:22;2.05;;;0.80;;
10122;SDS011;5101;49.038;8.710;2022-10-16T09:41:03;5.20;;;0.80;;
10122;SDS011;5101;49.038;8.710;2022-10-16T09:43:47;2.78;;;0.95;;
10122;SDS011;5101;49.038;8.710;2022-10-16T09:49:35;4.40;;;0.80;;
10122;SDS011;5101;49.038;8.710;2022-10-16T09:51:48;4.85;;;0.70;;
10122;SDS011;5101;49.038;8.710;2022-10-16T09:54:18;2.05;;;0.82;;
10122;SDS011;5101;49.038;8.710;2022-10-16T09:56:46;3.00;;;0.68;;
10122;SDS011;5101;49.038;8.710;2022-10-16T09:59:17;0.55;;;0.50;;
10122;SDS011;5101;49.038;8.710;2022-10-16T10:01:45;5.30;;;1.02;;
10122;SDS011;5101;49.038;8.710;2022-10-16T10:04:14;1.10;;;0.50;;
10122;SDS011;5101;49.038;8.710;2022-10-16T10:06:43;5.10;;;1.00;;
10122;SDS011;5101;49.038;8.710;2022-10-16T10:11:58;0.60;;;0.60;;
10122;SDS011;5101;49.038;8.710;2022-10-16T10:14:26;2.70;;;0.82;;
10122;SDS011;5101;49.038;8.710;2022-10-16T10:17:01;3.90;;;0.80;;
10122;SDS011;5101;49.038;8.710;2022-10-16T10:38:43;4.57;;;0.80;;
10122;SDS011;5101;49.038;8.710;2022-10-16T10:46:45;2.17;;;0.82;;
10122;SDS011;5101;49.038;8.710;2022-10-16T10:49:39;4.10;;;1.00;;
10122;SDS011;5101;49.038;8.710;2022-10-16T11:00:43;1.25;;;0.80;;
10122;SDS011;5101;49.038;8.710;2022-10-16T11:05:54;1.05;;;0.73;;
10122;SDS011;5101;49.038;8.710;2022-10-16T11:08:29;1.05;;;0.50;;
10122;SDS011;5101;49.038;8.710;2022-10-16T11:11:09;4.07;;;0.73;;
10122;SDS011;5101;49.038;8.710;2022-10-16T11:14:00;6.07;;;0.95;;
10122;SDS011;5101;49.038;8.710;2022-10-16T11:19:39;2.15;;;0.70;;
10122;SDS011;5101;49.038;8.710;2022-10-16T11:25:00;2.22;;;0.52;;
10122;SDS011;5101;49.038;8.710;2022-10-16T11:27:45;1.70;;;0.75;;
10122;SDS011;5101;49.038;8.710;2022-10-16T11:30:26;2.95;;;0.98;;
10122;SDS011;5101;49.038;8.710;2022-10-16T11:35:36;2.50;;;1.05;;
10122;SDS011;5101;49.038;8.710;2022-10-16T11:38:03;3.53;;;0.90;;
10122;SDS011;5101;49.038;8.710;2022-10-16T11:40:46;1.77;;;1.00;;
10122;SDS011;5101;49.038;8.710;2022-10-16T11:43:22;1.00;;;1.00;;
10122;SDS011;5101;49.038;8.710;2022-10-16T11:45:57;2.75;;;0.98;;
10122;SDS011;5101;49.038;8.710;2022-10-16T11:50:53;1.77;;;0.77;;
10122;SDS011;5101;49.038;8.710;2022-10-16T11:56:05;1.10;;;0.55;;
10122;SDS011;5101;49.038;8.710;2022-10-16T11:58:33;2.55;;;1.00;;
10122;SDS011;5101;49.038;8.710;2022-10-16T12:06:44;6.55;;;1.92;;
10122;SDS011;5101;49.038;8.710;2022-10-16T12:09:27;3.63;;;0.70;;
10122;SDS011;5101;49.038;8.710;2022-10-16T12:11:55;2.58;;;0.70;;
10122;SDS011;5101;49.038;8.710;2022-10-16T12:14:35;1.98;;;0.60;;
10122;SDS011;5101;49.038;8.710;2022-10-16T12:17:03;3.75;;;1.10;;
10122;SDS011;5101;49.038;8.710;2022-10-16T12:19:45;1.80;;;0.82;;
10122;SDS011;5101;49.038;8.710;2022-10-16T12:22:23;3.60;;;1.00;;
10122;SDS011;5101;49.038;8.710;2022-10-16T12:24:52;1.50;;;0.60;;
10122;SDS011;5101;49.038;8.710;2022-10-16T12:27:30;3.08;;;0.80;;
10122;SDS011;5101;49.038;8.710;2022-10-16T12:30:00;0.98;;;0.70;;
10122;SDS011;5101;49.038;8.710;2022-10-16T12:35:05;3.50;;;0.73;;
10122;SDS011;5101;49.038;8.710;2022-10-16T12:37:33;5.38;;;1.90;;
10122;SDS011;5101;49.038;8.710;2022-10-16T12:40:10;1.88;;;0.63;;
10122;SDS011;5101;49.038;8.710;2022-10-16T12:42:57;2.65;;;1.15;;
10122;SDS011;5101;49.038;8.710;2022-10-16T12:45:30;1.58;;;0.75;;
10122;SDS011;5101;49.038;8.710;2022-10-16T12:47:58;5.60;;;0.90;;
10122;SDS011;5101;49.038;8.710;2022-10-16T12:50:27;5.85;;;1.75;;
10122;SDS011;5101;49.038;8.710;2022-10-16T12:52:58;5.13;;;0.93;;
10122;SDS011;5101;49.038;8.710;2022-10-16T12:55:25;2.65;;;1.00;;
10122;SDS011;5101;49.038;8.710;2022-10-16T12:58:00;0.70;;;0.70;;
10122;SDS011;5101;49.038;8.710;2022-10-16T13:03:40;1.35;;;0.90;;
10122;SDS011;5101;49.038;8.710;2022-10-16T13:06:33;3.20;;;0.68;;
10122;SDS011;5101;49.038;8.710;2022-10-16T13:19:41;2.58;;;0.85;;
10122;SDS011;5101;49.038;8.710;2022-10-16T13:32:46;1.45;;;0.80;;
10122;SDS011;5101;49.038;8.710;2022-10-16T13:35:21;2.92;;;0.80;;
10122;SDS011;5101;49.038;8.710;2022-10-16T13:38:05;2.25;;;0.70;;
10122;SDS011;5101;49.038;8.710;2022-10-16T13:40:36;0.90;;;0.63;;
10122;SDS011;5101;49.038;8.710;2022-10-16T13:43:12;2.30;;;0.77;;
10122;SDS011;5101;49.038;8.710;2022-10-16T13:45:38;1.83;;;0.70;;
10122;SDS011;5101;49.038;8.710;2022-10-16T13:48:08;4.05;;;0.80;;
10122;SDS011;5101;49.038;8.710;2022-10-16T13:50:37;5.65;;;1.02;;
10122;SDS011;5101;49.038;8.710;2022-10-16T13:53:12;1.75;;;0.88;;
10122;SDS011;5101;49.038;8.710;2022-10-16T13:55:39;3.92;;;0.90;;
10122;SDS011;5101;49.038;8.710;2022-10-16T13:58:05;3.15;;;0.90;;
10122;SDS011;5101;49.038;8.710;2022-10-16T14:00:37;2.55;;;0.70;;
10122;SDS011;5101;49.038;8.710;2022-10-16T14:03:06;4.53;;;0.70;;
10122;SDS011;5101;49.038;8.710;2022-10-16T14:05:52;5.10;;;0.95;;
10122;SDS011;5101;49.038;8.710;2022-10-16T14:08:21;1.50;;;1.08;;
10122;SDS011;5101;49.038;8.710;2022-10-16T14:10:52;5.40;;;1.13;;
10122;SDS011;5101;49.038;8.710;2022-10-16T14:13:23;0.80;;;0.80;;
10122;SDS011;5101;49.038;8.710;2022-10-16T14:15:59;3.20;;;1.40;;
10122;SDS011;5101;49.038;8.710;2022-10-16T14:18:27;1.55;;;0.88;;
10122;SDS011;5101;49.038;8.710;2022-10-16T14:20:53;2.22;;;1.00;;
10122;SDS011;5101;49.038;8.710;2022-10-16T14:23:30;1.10;;;1.00;;
10122;SDS011;5101;49.038;8.710;2022-10-16T14:28:38;4.88;;;1.42;;
10122;SDS011;5101;49.038;8.710;2022-10-16T14:31:21;4.75;;;1.73;;
10122;SDS011;5101;49.038;8.710;2022-10-16T14:33:56;2.60;;;1.40;;
10122;SDS011;5101;49.038;8.710;2022-10-16T14:36:22;2.15;;;1.50;;
10122;SDS011;5101;49.038;8.710;2022-10-16T14:39:06;6.03;;;1.25;;
10122;SDS011;5101;49.038;8.710;2022-10-16T14:41:46;1.75;;;1.65;;
10122;SDS011;5101;49.038;8.710;2022-10-16T14:44:13;5.80;;;1.73;;
10122;SDS011;5101;49.038;8.710;2022-10-16T14:46:41;1.60;;;1.50;;
10122;SDS011;5101;49.038;8.710;2022-10-16T14:51:34;4.53;;;1.65;;
10122;SDS011;5101;49.038;8.710;2022-10-16T14:54:01;3.65;;;1.30;;
10122;SDS011;5101;49.038;8.710;2022-10-16T14:56:29;8.48;;;1.10;;
10122;SDS011;5101;49.038;8.710;2022-10-16T14:59:37;4.30;;;1.10;;
10122;SDS011;5101;49.038;8.710;2022-10-16T15:02:23;3.28;;;1.00;;
10122;SDS011;5101;49.038;8.710;2022-10-16T15:04:53;2.40;;;1.08;;
10122;SDS011;5101;49.038;8.710;2022-10-16T15:07:19;2.15;;;1.00;;
10122;SDS011;5101;49.038;8.710;2022-10-16T15:09:45;2.90;;;1.00;;
10122;SDS011;5101;49.038;8.710;2022-10-16T15:12:11;3.22;;;1.00;;
10122;SDS011;5101;49.038;8.710;2022-10-16T15:14:36;1.73;;;0.90;;
10122;SDS011;5101;49.038;8.710;2022-10-16T15:17:02;2.45;;;1.08;;
10122;SDS011;5101;49.038;8.710;2022-10-16T15:19:27;6.20;;;0.95;;
10122;SDS011;5101;49.038;8.710;2022-10-16T15:21:53;3.10;;;1.00;;
10122;SDS011;5101;49.038;8.710;2022-10-16T15:24:18;2.90;;;1.10;;
10122;SDS011;5101;49.038;8.710;2022-10-16T15:26:44;4.80;;;0.98;;
10122;SDS011;5101;49.038;8.710;2022-10-16T15:29:11;3.20;;;1.20;;
10122;SDS011;5101;49.038;8.710;2022-10-16T15:31:36;7.60;;;1.10;;
10122;SDS011;5101;49.038;8.710;2022-10-16T15:34:02;9.00;;;3.00;;
10122;SDS011;5101;49.038;8.710;2022-10-16T15:36:30;7.78;;;3.72;;
10122;SDS011;5101;49.038;8.710;2022-10-16T15:39:02;4.68;;;3.63;;
10122;SDS011;5101;49.038;8.710;2022-10-16T15:41:35;8.38;;;3.08;;
10122;SDS011;5101;49.038;8.710;2022-10-16T15:44:01;4.55;;;2.40;;
10122;SDS011;5101;49.038;8.710;2022-10-16T15:46:26;5.88;;;1.98;;
10122;SDS011;5101;49.038;8.710;2022-10-16T15:48:55;5.95;;;1.67;;
10122;SDS011;5101;49.038;8.710;2022-10-16T15:51:24;11.35;;;1.50;;
10122;SDS011;5101;49.038;8.710;2022-10-16T15:53:58;3.95;;;1.83;;
10122;SDS011;5101;49.038;8.710;2022-10-16T15:56:26;4.72;;;2.42;;
10122;SDS011;5101;49.038;8.710;2022-10-16T15:58:53;5.40;;;3.40;;
10122;SDS011;5101;49.038;8.710;2022-10-16T16:01:19;3.80;;;1.88;;
10122;SDS011;5101;49.038;8.710;2022-10-16T16:03:44;6.97;;;3.47;;
10122;SDS011;5101;49.038;8.710;2022-10-16T16:06:10;9.02;;;3.88;;
10122;SDS011;5101;49.038;8.710;2022-10-16T16:08:37;4.70;;;3.47;;
10122;SDS011;5101;49.038;8.710;2022-10-16T16:11:07;4.43;;;2.92;;
10122;SDS011;5101;49.038;8.710;2022-10-16T16:13:35;7.57;;;1.77;;
10122;SDS011;5101;49.038;8.710;2022-10-16T16:16:04;11.90;;;2.20;;
10122;SDS011;5101;49.038;8.710;2022-10-16T16:18:32;3.85;;;1.98;;
10122;SDS011;5101;49.038;8.710;2022-10-16T16:20:58;11.60;;;2.33;;
10122;SDS011;5101;49.038;8.710;2022-10-16T16:23:23;7.85;;;2.83;;
10122;SDS011;5101;49.038;8.710;2022-10-16T16:28:35;8.50;;;1.73;;
10122;SDS011;5101;49.038;8.710;2022-10-16T16:31:02;9.38;;;2.00;;
10122;SDS011;5101;49.038;8.710;2022-10-16T16:33:28;10.55;;;1.50;;
10122;SDS011;5101;49.038;8.710;2022-10-16T16:35:58;4.90;;;2.00;;
10122;SDS011;5101;49.038;8.710;2022-10-16T16:38:25;7.50;;;1.63;;
10122;SDS011;5101;49.038;8.710;2022-10-16T16:40:51;4.80;;;1.95;;
10122;SDS011;5101;49.038;8.710;2022-10-16T16:43:17;4.40;;;2.20;;
10122;SDS011;5101;49.038;8.710;2022-10-16T16:45:43;3.85;;;2.20;;
10122;SDS011;5101;49.038;8.710;2022-10-16T16:48:08;5.25;;;2.03;;
10122;SDS011;5101;49.038;8.710;2022-10-16T16:50:37;5.80;;;2.35;;
10122;SDS011;5101;49.038;8.710;2022-10-16T16:53:02;8.88;;;3.00;;
10122;SDS011;5101;49.038;8.710;2022-10-16T16:55:28;4.85;;;2.58;;
10122;SDS011;5101;49.038;8.710;2022-10-16T16:57:54;9.63;;;2.03;;
10122;SDS011;5101;49.038;8.710;2022-10-16T17:00:19;7.28;;;2.10;;
10122;SDS011;5101;49.038;8.710;2022-10-16T17:02:47;5.93;;;2.15;;
10122;SDS011;5101;49.038;8.710;2022-10-16T17:05:13;3.83;;;2.15;;
10122;SDS011;5101;49.038;8.710;2022-10-16T17:07:39;6.38;;;2.45;;
10122;SDS011;5101;49.038;8.710;2022-10-16T17:10:06;7.05;;;2.08;;
10122;SDS011;5101;49.038;8.710;2022-10-16T17:12:32;5.30;;;2.53;;
10122;SDS011;5101;49.038;8.710;2022-10-16T17:14:57;6.18;;;3.03;;
10122;SDS011;5101;49.038;8.710;2022-10-16T17:17:23;9.82;;;3.00;;